Saturday, January 19, 2019, 7:26 PM CST
Back to Local

KDPA, Chicago/west Ch Dupage

Location: West Chicago, IL, United States Lat: 41.9
Local Time: 7:26 PM CST ( 1:26 GMT) Lon: -88.25
Time Zone: US/Central Elev: 757 ft

Show me the last for .
Show Decoded

2019-01-19 18:52 METAR KDPA 200052Z 36019G27KT 7SM OVC022 M07/M11 A3003 RMK AO2 PK WND 36028/0021
                 SLP181 T10671106 =
2019-01-19 17:52 METAR KDPA 192352Z 36018KT 7SM BLSN OVC017 M07/M10 A3004 RMK AO2 PK WND
                 35027/2253 SLP182 60000 T10671100 11033 21067 51025 =
2019-01-19 16:52 METAR KDPA 192252Z 36021G25KT 5SM BLSN OVC015 M06/M09 A3002 RMK AO2 PK WND
                 01031/2200 SLP176 T10611089 =
2019-01-19 15:52 METAR KDPA 192152Z 01018G28KT 6SM BLSN OVC016 M05/M08 A2999 RMK AO2 PK WND
                 01033/2141 SNB2059E24 SLP166 P0000 T10501083 =
2019-01-19 14:52 METAR KDPA 192052Z 02025G34KT 6SM BLSN OVC019 M04/M08 A2996 RMK AO2 PK WND
                 01034/2048 SLP156 60000 T10441078 56017 =
2019-01-19 13:52 METAR KDPA 191952Z 03018G27KT 6SM BLSN OVC016 M04/M07 A2997 RMK AO2 PK WND
                 02034/1856 SLP159 T10391072 =
2019-01-19 12:52 METAR KDPA 191852Z 04020G33KT 3SM BLSN OVC016 M04/M07 A2998 RMK AO2 PK WND
                 03034/1806 UPE48SNB36E46 SLP163 P0000 T10391072 =
2019-01-19 11:52 METAR KDPA 191752Z 04024G31KT 3SM UP OVC018 M03/M07 A3001 RMK AO2 PK WND
                 04031/1708 UPB1653SNE1653B1656E06 SLP174 P0000 60001 T10331072 11028 21033 58001
                 =
2019-01-19 10:52 METAR KDPA 191652Z 03018G29KT 3SM -SN OVC016 M03/M07 A3003 RMK AO2 PK WND
                 04031/1611 UPB1558E34SNE1558B1559E10B17E32B34 SLP179 P0000 T10331067 =
2019-01-19 09:52 METAR KDPA 191552Z 04017G26KT 5SM -SN OVC017 M03/M06 A3003 RMK AO2 PK WND
                 03027/1535 SLP180 P0000 T10331061 =
2019-01-19 09:41 METAR KDPA 191541Z 04019G27KT 3SM -SN OVC015 M03/M06 A3004 RMK AO2 PK WND
                 03027/1535 P0000 T10331061 =
2019-01-19 09:22 METAR KDPA 191522Z 04018G25KT 3SM -SN BR OVC012 M03/M06 A3003 RMK AO2 P0000
                 T10331056 =
2019-01-19 08:52 METAR KDPA 191452Z 04016G22KT 1SM -SN BR BKN012 OVC019 M03/M06 A3002 RMK AO2 PK
                 WND 03027/1428 SLP174 P0000 60001 T10331056 51001 RVRNO =
2019-01-19 08:28 METAR KDPA 191428Z 04015G27KT 1SM R02L/P6000FT -SN BR BKN012 OVC016 M03/M06
                 A3002 RMK AO2 PK WND 03027/1428 P0000 T10331056 =
2019-01-19 07:52 METAR KDPA 191352Z 03016G24KT 3/4SM R02L/P6000FT -SN BR OVC013 M03/M05 A3002 RMK
                 AO2 SLP174 P0001 T10331050 =
2019-01-19 07:39 METAR KDPA 191339Z 03013KT 3/4SM R02L/P6000FT -SN BR SCT010 OVC017 M03/M05 A3001
                 RMK AO2 P0001 T10331050 =
2019-01-19 07:30 METAR KDPA 191330Z 04016G21KT 1SM R02L/P6000FT -SN BR FEW012 OVC017 M03/M05
                 A3002 RMK AO2 P0001 T10331050 =
2019-01-19 07:21 METAR KDPA 191321Z 04016G21KT 1SM R02L/P6000FT -SN BR FEW007 OVC014 M03/M05
                 A3003 RMK AO2 P0001 T10331050 =
2019-01-19 07:07 METAR KDPA 191307Z 04014G23KT 3/4SM R02L/P6000FT -SN BR FEW009 OVC013 M03/M05
                 A3002 RMK AO2 P0001 T10331050 =
2019-01-19 06:52 METAR KDPA 191252Z 04013G22KT 3/4SM R02L/P6000FT -SN BR VV013 M03/M05 A3002 RMK
                 AO2 SLP174 P0000 T10331050 =
2019-01-19 06:48 METAR KDPA 191248Z 03017G22KT 3/4SM R02L/6000FT -SN BR VV014 M03/M05 A3001 RMK
                 AO2 P0000 =
2019-01-19 06:21 METAR KDPA 191221Z 04015KT 1SM R02L/6000FT -SN BR FEW008 OVC020 M03/M05 A3002
                 RMK AO2 P0000 T10281050 =
2019-01-19 06:14 METAR KDPA 191214Z 04017KT 3/4SM R02L/6000FT -SN BR FEW008 OVC016 M03/M04 A3002
                 RMK AO2 P0000 T10281044 =
2019-01-19 05:52 METAR KDPA 191152Z 04016G24KT 1/2SM R02L/5000FT SN FZFG VV010 M03/M04 A3001 RMK
                 AO2 SLP172 P0002 60006 70010 T10281044 11022 21028 55006 =
2019-01-19 04:52 METAR KDPA 191052Z 04011G21KT 3/4SM R02L/5000FT -SN BR VV013 M03/M04 A3001 RMK
                 AO2 SLP172 P0001 T10281044 =
2019-01-19 04:15 METAR KDPA 191015Z 04014KT 1/2SM R02L/5000FT SN FZFG VV010 M03/M04 A3000 RMK AO2
                 P0000 T10281039 =
2019-01-19 03:52 METAR KDPA 190952Z 05014KT 1/2SM R02L/3500FT SN FZFG VV007 M02/M04 A3000 RMK AO2
                 SLP168 P0002 T10221039 =
2019-01-19 03:32 METAR KDPA 190932Z AUTO 05014KT 1/4SM R02L/3500FT +SN FZFG VV007 M02/M04 A3000
                 RMK AO2 P0001 T10221039 =
2019-01-19 03:18 METAR KDPA 190918Z AUTO 06014G21KT 1/2SM R02L/3500FT SN FZFG VV007 M02/M04 A3002
                 RMK AO2 P0001 T10221039 =
2019-01-19 03:02 METAR KDPA 190902Z 06015G23KT 1/4SM R02L/3500FT SN FZFG VV007 M02/M04 A3003 RMK
                 AO2 P0000 T10221039 =
2019-01-19 02:52 METAR KDPA 190852Z 07016KT 1/2SM R02L/6000FT SN FZFG VV009 M02/M04 A3003 RMK AO2
                 SLP178 P0000 60001 T10221039 56008 =
2019-01-19 02:49 METAR KDPA 190849Z 06015G25KT 1/2SM R02L/6000FT SN FZFG OVC010 M02/M04 A3003 RMK
                 AO2 P0000 =
2019-01-19 02:38 METAR KDPA 190838Z 06017G25KT 1 3/4SM R02L/6000FT -SN BR OVC012 M02/M04 A3003
                 RMK AO2 P0000 T10221044 =
2019-01-19 02:12 METAR KDPA 190812Z 06009KT 4SM R02L/6000FT -SN BR SCT010 BKN014 OVC023 M02/M04
                 A3005 RMK AO2 P0000 T10221039 =
2019-01-19 02:01 METAR KDPA 190801Z 06012KT 2SM R02L/6000FT -SN BR SCT009 BKN015 OVC027 M02/M04
                 A3005 RMK AO2 P0000 T10221039 =
2019-01-19 01:52 METAR KDPA 190752Z 06013KT 1 1/2SM R02L/6000FT -SN BR FEW009 BKN013 OVC027
                 M02/M04 A3005 RMK AO2 SLP185 P0000 T10221039 =
2019-01-19 01:38 METAR KDPA 190738Z 06011KT 1 1/4SM R02L/4500FT -SN BR SCT009 OVC015 M02/M04
                 A3006 RMK AO2 P0000 T10221039 =
2019-01-19 01:24 METAR KDPA 190724Z 06010KT 1SM R02L/4500FT -SN BR SCT009 OVC013 M02/M04 A3005
                 RMK AO2 P0000 T10221039 =
2019-01-19 01:14 METAR KDPA 190714Z 06012KT 3/4SM R02L/4500FT -SN BR FEW006 OVC011 M02/M04 A3005
                 RMK AO2 P0000 T10221039 =
2019-01-19 00:52 METAR KDPA 190652Z 06011KT 1/2SM R02L/5000FT SN FZFG VV009 M02/M04 A3005 RMK AO2
                 SLP186 P0001 T10221039 =
2019-01-19 00:24 METAR KDPA 190624Z 06010KT 3/4SM R02L/5000FT -SN BR OVC010 M02/M04 A3006 RMK AO2
                 P0000 T10221039 =
2019-01-18 23:52 METAR KDPA 190552Z 05007KT 1 1/4SM R02L/5000FT -SN BR BKN012 OVC018 M03/M04
                 A3009 RMK AO2 SLP200 P0001 60004 T10281039 11022 21028 410061033 55007 =
2019-01-18 23:09 METAR KDPA 190509Z 05012KT 1SM R02L/5000FT -SN BR OVC013 M03/M04 A3009 RMK AO2
                 P0000 T10281044 =
2019-01-18 22:52 METAR KDPA 190452Z 05014G20KT 3/4SM R02L/4500FT -SN BR SCT009 OVC015 M03/M04
                 A3008 RMK AO2 SLP195 P0001 T10281044 =
2019-01-18 22:44 METAR KDPA 190444Z 05014G20KT 1SM R02L/4500FT -SN BR FEW010 OVC015 M03/M04 A3008
                 RMK AO2 P0001 T10281044 =
2019-01-18 22:13 METAR KDPA 190413Z 05011KT 1/2SM R02L/4500FT SN FZFG FEW008 OVC012 M03/M04 A3009
                 RMK AO2 P0001 T10281044 =
2019-01-18 21:52 METAR KDPA 190352Z 05010KT 1/2SM R02L/4500FT SN FZFG VV009 M03/M04 A3010 RMK AO2
                 SLP202 P0002 T10281039 =
2019-01-18 21:34 METAR KDPA 190334Z 04010KT 1/2SM R02L/4500FT SN FZFG VV009 M02/M04 A3010 RMK AO2
                 P0002 T10221039 =
2019-01-18 21:24 METAR KDPA 190324Z 06009KT 1/2SM R02L/4500FT SN FZFG VV010 M02/M04 A3011 RMK AO2
                 P0001 T10221039 =
2019-01-18 21:11 METAR KDPA 190311Z 06010KT 1/2SM R02L/4500FT SN FZFG VV009 M02/M04 A3011 RMK AO2
                 P0001 T10221044 =
2019-01-18 20:59 METAR KDPA 190259Z 06008KT 1/2SM R02L/4500FT SN FZFG OVC013 M02/M04 A3012 RMK
                 AO2 P0000 T10221044 =
2019-01-18 20:52 METAR KDPA 190252Z 06008KT 1SM -SN OVC013 M02/M05 A3011 RMK AO2 SNB42 SLP207
                 P0000 60000 T10221050 55002 RVRNO =
2019-01-18 20:48 METAR KDPA 190248Z 05008KT 1 3/4SM -SN OVC013 M02/M05 A3011 RMK AO2 SNB42 P0000
                 =
2019-01-18 20:08 METAR KDPA 190208Z 08010KT 10SM OVC013 M02/M06 A3012 RMK AO2 T10221056 =
2019-01-18 19:52 METAR KDPA 190152Z 07013KT 10SM OVC015 M02/M06 A3011 RMK AO2 SLP205 T10221056 =

Support USWX by starting your Amazon purchase here.